High temp

Not for real navigation. The accuracy of this data is not assured See disclaimer for more information



ICAO NAME COUNTRY WIND Kt GUST Kt VIS m TEMP/DEW C BARO METAR
YBDV 13 0 9999 40/18 29.56 YBDV 191000Z AUTO 33013KT //// // ////// 40/18 Q1001
YOLD 11 0 9999 40/19 29.41 YOLD 191000Z AUTO 33011KT 9999 // BKN105 OVC125 40/19 Q0996
KQJB 0 0 9999 38/5 29.85 KQJB 190956Z AUTO 00000KT 9999 CAVOK 38/05 A2985 RMK AO2 SLPNO T03820049
YCBP 8 0 9999 37/20 29.50 YCBP 191000Z AUTO 25008KT 9999 BKN100 37/20 Q0999
YMEK 13 0 9999 36/11 29.65 YMEK 191000Z AUTO 22013KT 9999 // NCD 36/11 Q1004

Show more